Terminal Aerodrome Forecast
Issued by NWS Louisville, KY

Home | Current Version | Previous Version | Text Only | Print | Product List | Glossary On
Versions: 1 2 3 4 5 6 7 8 9 10 11 12 13 14 15 16 17 18 19 20 21 22
000
FTUS43 KLMK 050300 AAC
TAFLEX
TAF AMD
KLEX 050359Z 0504/0524 36010KT 1/2SM SN FZFG OVC006
     FM051200 36009KT 3SM -SN BKN010
     FM051500 01009KT P6SM BKN025=

USA.gov is the U.S. government's official web portal to all federal, state and local government web resources and services.